Time;durP1;ratioP1;P1;durP2;ratioP2;P2;SDS_P1;SDS_P2;PMS_P1;PMS_P2;Temp;Humidity;BMP_temperature;BMP_pressure;BME280_temperature;BME280_humidity;BME280_pressure;Samples;Min_cycle;Max_cycle;Signal;HPM_P1;HPM_P2
2022/04/26 03:36:34;;;;;;;5.20;2.10;;;14.70;60.20;;;;;;4918679;29;20060;-79
2022/04/26 03:39:00;;;;;;;5.90;2.05;;;14.70;60.40;;;;;;4918598;29;20048;-80
2022/04/26 03:41:25;;;;;;;5.80;1.73;;;14.70;60.80;;;;;;4918873;29;20047;-77
2022/04/26 03:43:51;;;;;;;5.65;2.10;;;14.70;60.30;;;;;;4919150;29;20085;-78
2022/04/26 03:46:17;;;;;;;5.13;2.13;;;14.70;60.10;;;;;;4919268;29;20056;-78
2022/04/26 03:48:42;;;;;;;4.07;2.05;;;14.70;60.20;;;;;;4918377;29;20488;-78
2022/04/26 03:51:08;;;;;;;8.68;2.33;;;14.70;60.80;;;;;;4920004;29;20056;-77
2022/04/26 03:53:34;;;;;;;5.85;2.25;;;14.70;60.50;;;;;;4903923;29;20048;-78
2022/04/26 03:56:00;;;;;;;5.03;2.13;;;14.60;60.20;;;;;;4900227;29;20442;-79
2022/04/26 03:58:26;;;;;;;7.40;2.25;;;14.60;60.40;;;;;;4900414;29;20461;-81
2022/04/26 04:00:52;;;;;;;5.40;2.15;;;14.60;60.30;;;;;;4931166;29;20064;-79
2022/04/26 04:03:18;;;;;;;5.10;2.42;;;14.50;60.30;;;;;;4919215;29;20453;-77
2022/04/26 04:05:44;;;;;;;6.53;1.80;;;14.50;60.30;;;;;;4918878;29;20440;-78
2022/04/26 04:08:10;;;;;;;6.35;2.25;;;14.50;60.50;;;;;;4918497;29;20044;-77
2022/04/26 04:10:36;;;;;;;5.13;2.00;;;14.50;60.20;;;;;;4918925;29;20044;-79
2022/04/26 04:13:01;;;;;;;4.45;2.00;;;14.50;60.20;;;;;;4917859;29;20533;-78
2022/04/26 04:15:27;;;;;;;5.65;1.77;;;14.50;60.50;;;;;;4918033;29;20127;-79
2022/04/26 04:17:53;;;;;;;4.65;1.90;;;14.50;60.30;;;;;;4917749;29;20123;-78
2022/04/26 04:20:20;;;;;;;5.13;2.15;;;14.50;60.40;;;;;;4918419;29;20099;-78
2022/04/26 04:22:48;;;;;;;5.97;2.33;;;14.50;60.50;;;;;;4917973;29;20062;-77
2022/04/26 04:25:15;;;;;;;5.18;1.90;;;14.50;60.40;;;;;;4917425;29;20054;-79
2022/04/26 04:27:42;;;;;;;6.75;2.58;;;14.40;60.40;;;;;;4917568;29;20052;-79
2022/04/26 04:30:08;;;;;;;5.90;2.20;;;14.40;60.80;;;;;;4918896;29;20350;-77
2022/04/26 04:32:34;;;;;;;5.78;1.90;;;14.40;60.60;;;;;;4906166;29;20049;-78
2022/04/26 04:35:00;;;;;;;4.20;2.05;;;14.40;60.70;;;;;;4930422;29;20385;-79
2022/04/26 04:37:25;;;;;;;4.55;2.28;;;14.40;60.60;;;;;;4930542;29;20063;-78
2022/04/26 04:39:51;;;;;;;3.88;1.85;;;14.40;60.50;;;;;;4899609;29;20053;-77
2022/04/26 04:42:17;;;;;;;5.55;2.50;;;14.40;60.50;;;;;;4899704;29;20059;-77
2022/04/26 04:44:43;;;;;;;9.40;2.20;;;14.30;60.70;;;;;;4883559;29;20048;-78
2022/04/26 04:47:09;;;;;;;6.72;2.92;;;14.40;60.80;;;;;;4898732;29;20445;-77
2022/04/26 04:49:35;;;;;;;5.03;2.33;;;14.40;60.90;;;;;;4883111;29;20059;-79
2022/04/26 04:52:01;;;;;;;4.93;2.03;;;14.40;61.00;;;;;;4900005;29;20120;-79
2022/04/26 04:54:26;;;;;;;4.30;2.17;;;14.40;60.60;;;;;;4883292;29;20067;-77
2022/04/26 04:56:52;;;;;;;4.05;1.88;;;14.30;60.80;;;;;;4899065;29;20053;-77
2022/04/26 04:59:18;;;;;;;6.38;2.80;;;14.40;60.70;;;;;;4899154;29;20055;-78
2022/04/26 05:01:43;;;;;;;5.53;2.00;;;14.40;61.10;;;;;;4907196;29;20080;-79
2022/04/26 05:04:09;;;;;;;4.82;2.35;;;14.40;61.60;;;;;;4902779;29;20341;-78
2022/04/26 05:06:35;;;;;;;3.65;1.50;;;14.40;61.60;;;;;;4917444;29;20092;-79
2022/04/26 05:09:00;;;;;;;4.63;2.13;;;14.40;61.50;;;;;;4918251;29;20044;-79
2022/04/26 05:11:26;;;;;;;4.75;2.10;;;14.50;61.00;;;;;;4918400;29;20489;-81
2022/04/26 05:13:52;;;;;;;9.10;2.33;;;14.50;61.00;;;;;;4918142;29;20131;-77
2022/04/26 05:16:17;;;;;;;5.30;2.05;;;14.50;60.90;;;;;;4918532;29;20055;-78
2022/04/26 05:18:43;;;;;;;4.80;2.00;;;14.50;61.10;;;;;;4919071;29;20063;-78
2022/04/26 05:21:10;;;;;;;5.57;1.95;;;14.50;61.20;;;;;;4936886;29;20089;-77
2022/04/26 05:26:20;;;;;;;4.95;2.28;;;14.60;60.80;;;;;;4921003;29;20139;-80
2022/04/26 05:28:46;;;;;;;6.00;2.45;;;14.60;60.70;;;;;;4937026;29;20144;-77
2022/04/26 05:31:12;;;;;;;3.35;1.73;;;14.60;60.90;;;;;;4916124;29;20071;-79
2022/04/26 05:33:38;;;;;;;5.82;2.17;;;14.60;60.90;;;;;;4901799;29;20516;-78
2022/04/26 05:36:04;;;;;;;7.70;2.40;;;14.60;60.90;;;;;;4901933;29;20049;-77
2022/04/26 05:38:30;;;;;;;4.22;2.35;;;14.60;61.10;;;;;;4904803;29;20143;-79
2022/04/26 05:40:55;;;;;;;5.60;2.05;;;14.60;61.30;;;;;;4903131;29;20088;-79
2022/04/26 05:43:21;;;;;;;5.82;2.20;;;14.60;60.90;;;;;;4903043;29;20059;-80
2022/04/26 05:45:47;;;;;;;7.30;2.40;;;14.60;60.90;;;;;;4902761;29;20454;-77
2022/04/26 05:48:13;;;;;;;5.25;2.55;;;14.60;60.80;;;;;;4901624;29;20154;-77
2022/04/26 05:50:40;;;;;;;8.20;2.40;;;14.60;60.90;;;;;;4903143;29;20473;-78
2022/04/26 05:53:06;;;;;;;3.53;1.85;;;14.60;60.70;;;;;;4902025;29;20059;-79
2022/04/26 05:55:32;;;;;;;5.38;2.10;;;14.60;60.70;;;;;;4901295;29;20052;-78
2022/04/26 05:57:58;;;;;;;4.15;1.95;;;14.60;60.70;;;;;;4901489;29;20061;-77
2022/04/26 06:00:23;;;;;;;5.78;2.20;;;14.60;60.80;;;;;;4902798;29;20049;-80
2022/04/26 06:02:49;;;;;;;5.05;1.75;;;14.60;60.60;;;;;;4906862;29;20092;-80
2022/04/26 06:05:15;;;;;;;5.63;2.25;;;14.70;60.80;;;;;;4902486;29;20053;-80
2022/04/26 06:07:41;;;;;;;4.85;1.88;;;14.70;60.80;;;;;;4901628;29;20052;-79
2022/04/26 06:10:07;;;;;;;6.70;2.25;;;14.70;60.80;;;;;;4901085;29;20377;-78
2022/04/26 06:12:34;;;;;;;5.22;2.33;;;14.70;60.70;;;;;;4885740;29;20049;-79
2022/04/26 06:15:00;;;;;;;4.10;1.98;;;14.70;60.60;;;;;;4901955;29;20561;-78
2022/04/26 06:17:27;;;;;;;4.30;1.80;;;14.70;60.40;;;;;;4901666;29;20465;-78
2022/04/26 06:19:53;;;;;;;3.85;1.90;;;14.70;60.20;;;;;;4886139;29;20040;-79
2022/04/26 06:22:18;;;;;;;3.95;2.15;;;14.60;60.40;;;;;;4901388;29;20059;-80
2022/04/26 06:24:44;;;;;;;4.90;1.80;;;14.70;60.50;;;;;;4901330;29;20071;-79
2022/04/26 06:27:10;;;;;;;3.00;1.67;;;14.70;60.50;;;;;;4902069;29;20135;-81
2022/04/26 06:29:36;;;;;;;4.18;2.47;;;14.70;60.40;;;;;;4901482;29;20139;-79
2022/04/26 06:32:02;;;;;;;3.13;1.75;;;14.70;60.20;;;;;;4907831;29;20096;-78
2022/04/26 06:34:28;;;;;;;6.07;1.92;;;14.70;60.20;;;;;;4922470;29;20058;-79
2022/04/26 06:36:54;;;;;;;6.03;2.17;;;14.70;60.10;;;;;;4936210;29;20071;-78
2022/04/26 06:39:19;;;;;;;3.40;1.77;;;14.60;60.00;;;;;;4920460;29;20051;-80
2022/04/26 06:41:46;;;;;;;6.63;2.20;;;14.60;59.90;;;;;;4920723;29;20099;-77
2022/04/26 06:44:11;;;;;;;3.90;2.00;;;14.60;59.90;;;;;;4920383;29;20461;-78
2022/04/26 06:46:37;;;;;;;2.72;1.73;;;14.60;60.00;;;;;;4920578;29;20051;-79
2022/04/26 06:49:03;;;;;;;5.60;1.63;;;14.60;59.80;;;;;;4920612;29;20048;-79
2022/04/26 06:51:35;;;;;;;5.22;2.20;;;14.70;60.10;;;;;;4919081;29;20044;-79
2022/04/26 06:54:01;;;;;;;3.92;1.95;;;14.70;60.40;;;;;;4920443;29;20040;-78
2022/04/26 06:56:27;;;;;;;7.32;2.03;;;14.80;60.30;;;;;;4913478;29;20076;-79
2022/04/26 06:59:04;;;;;;;4.30;1.80;;;14.90;60.40;;;;;;4901015;29;20052;-76
2022/04/26 07:01:30;;;;;;;4.85;1.90;;;14.80;59.80;;;;;;4925275;29;20075;-79
2022/04/26 07:03:56;;;;;;;4.30;1.90;;;14.80;59.60;;;;;;4918809;29;20080;-79
2022/04/26 07:06:28;;;;;;;6.95;2.33;;;14.80;59.50;;;;;;4934753;29;20067;-78
2022/04/26 07:08:53;;;;;;;6.57;1.90;;;14.80;59.90;;;;;;4920105;29;20476;-77
2022/04/26 07:11:32;;;;;;;5.25;1.70;;;15.00;60.80;;;;;;4918916;29;20044;-78
2022/04/26 07:21:46;;;;;;;5.55;2.10;;;15.20;60.90;;;;;;4893977;29;20052;-77
2022/04/26 07:24:36;;;;;;;5.78;1.33;;;15.30;60.40;;;;;;4918223;29;20415;-78
2022/04/26 07:27:05;;;;;;;3.30;1.85;;;15.30;60.50;;;;;;4914504;29;20458;-78
2022/04/26 07:29:42;;;;;;;5.03;1.88;;;15.40;60.20;;;;;;4914039;29;20351;-77
2022/04/26 07:32:10;;;;;;;4.38;1.92;;;15.40;60.20;;;;;;4923612;29;20469;-78
2022/04/26 07:39:08;;;;;;;6.63;2.10;;;15.40;60.30;;;;;;4919613;29;20035;-77
2022/04/26 07:41:43;;;;;;;10.23;2.80;;;15.40;60.10;;;;;;4916175;29;20140;-78
2022/04/26 07:44:08;;;;;;;6.50;1.90;;;15.40;59.90;;;;;;4918183;29;20048;-78
2022/04/26 07:46:45;;;;;;;3.83;1.65;;;15.40;59.80;;;;;;4918375;29;20075;-77
2022/04/26 07:49:40;;;;;;;6.28;1.67;;;15.40;60.00;;;;;;4918390;29;20051;-77
2022/04/26 07:52:06;;;;;;;5.70;2.35;;;15.50;60.20;;;;;;4918141;29;20169;-77
2022/04/26 07:54:36;;;;;;;6.45;2.40;;;15.50;60.50;;;;;;4917738;29;20044;-77
2022/04/26 07:57:33;;;;;;;5.75;1.80;;;15.50;61.00;;;;;;4883496;29;20048;-77
2022/04/26 08:00:16;;;;;;;3.40;1.50;;;15.60;60.90;;;;;;4926995;29;20123;-78
2022/04/26 08:03:40;;;;;;;5.40;2.03;;;15.60;62.00;;;;;;4898463;29;20114;-78
2022/04/26 08:06:38;;;;;;;3.53;1.45;;;15.60;62.20;;;;;;4917117;29;20052;-78
2022/04/26 08:09:26;;;;;;;2.83;1.42;;;15.70;61.70;;;;;;4917212;29;20082;-77
2022/04/26 08:11:52;;;;;;;8.43;2.40;;;15.70;63.90;;;;;;4917857;29;20047;-77
2022/04/26 08:14:20;;;;;;;3.90;1.65;;;15.70;62.00;;;;;;4917767;29;20048;-77
2022/04/26 08:16:46;;;;;;;5.55;1.88;;;15.70;62.30;;;;;;4918622;29;20047;-77
2022/04/26 08:19:11;;;;;;;6.60;2.17;;;15.70;62.50;;;;;;4933610;29;20044;-74
2022/04/26 08:21:40;;;;;;;5.57;2.28;;;15.70;62.60;;;;;;4917884;29;20039;-78
2022/04/26 08:29:34;;;;;;;7.25;2.33;;;15.60;62.30;;;;;;4934075;29;20350;-78
2022/04/26 08:32:06;;;;;;;8.65;2.33;;;15.60;62.00;;;;;;4911252;29;20083;-78
2022/04/26 08:34:32;;;;;;;7.38;2.10;;;15.60;62.10;;;;;;4907627;29;20055;-78
2022/04/26 08:36:58;;;;;;;4.88;2.25;;;15.60;62.00;;;;;;4899825;29;20533;-78
2022/04/26 08:39:24;;;;;;;5.72;2.45;;;15.60;61.80;;;;;;4898115;29;20040;-81
2022/04/26 08:41:49;;;;;;;10.02;2.60;;;15.70;61.90;;;;;;4907853;29;20135;-75
2022/04/26 08:44:15;;;;;;;11.57;2.38;;;15.70;61.80;;;;;;4917424;29;20127;-75
2022/04/26 08:52:11;;;;;;;8.20;1.90;;;15.70;61.10;;;;;;4918544;29;20060;-77
2022/04/26 08:54:37;;;;;;;7.57;2.38;;;15.70;60.80;;;;;;4920266;29;20051;-75
2022/04/26 08:57:03;;;;;;;4.32;1.98;;;15.70;60.70;;;;;;4921521;29;20444;-75
2022/04/26 08:59:30;;;;;;;9.30;2.05;;;15.70;60.60;;;;;;4922451;29;20059;-75
2022/04/26 09:02:15;;;;;;;7.18;2.17;;;15.70;60.10;;;;;;4921556;29;20059;-77
2022/04/26 09:04:42;;;;;;;4.75;1.52;;;15.70;58.80;;;;;;4922138;29;20055;-78
2022/04/26 09:07:26;;;;;;;5.85;1.83;;;15.80;60.20;;;;;;4922156;29;20044;-76
2022/04/26 09:10:05;;;;;;;;;;;15.80;59.80;;;;;;4910830;29;20048;-78
2022/04/26 09:12:54;;;;;;;3.05;1.40;;;15.80;58.90;;;;;;4933563;29;20364;-75
2022/04/26 09:15:23;;;;;;;4.63;1.30;;;15.80;58.20;;;;;;4901491;29;20059;-76
2022/04/26 09:17:49;;;;;;;5.70;1.50;;;15.90;56.60;;;;;;4902818;29;20056;-74
2022/04/26 09:20:34;;;;;;;5.85;1.75;;;15.90;56.40;;;;;;4902771;29;20068;-75
2022/04/26 09:23:02;;;;;;;6.40;1.83;;;15.90;56.20;;;;;;4890951;29;20044;-75
2022/04/26 09:25:34;;;;;;;2.63;1.38;;;15.90;56.30;;;;;;4872831;29;20535;-75
2022/04/26 09:28:00;;;;;;;3.92;1.80;;;15.90;55.80;;;;;;4871419;29;20090;-74
2022/04/26 09:30:29;;;;;;;3.83;1.65;;;15.90;55.50;;;;;;4882173;29;20052;-77
2022/04/26 09:32:54;;;;;;;4.25;1.77;;;15.90;55.00;;;;;;4882054;29;20161;-75
2022/04/26 09:35:29;;;;;;;4.35;1.83;;;15.90;55.00;;;;;;4882090;29;20200;-76
2022/04/26 09:37:55;;;;;;;2.65;1.75;;;15.90;55.00;;;;;;4881492;29;20092;-74
2022/04/26 09:40:20;;;;;;;3.75;1.50;;;15.80;54.70;;;;;;4881658;29;20582;-73
2022/04/26 09:42:50;;;;;;;4.25;1.73;;;15.90;54.20;;;;;;4868716;29;20101;-74
2022/04/26 09:45:16;;;;;;;4.35;1.90;;;15.90;54.30;;;;;;4881950;29;20060;-74
2022/04/26 09:47:44;;;;;;;4.88;1.70;;;15.80;54.50;;;;;;4882113;29;20417;-75
2022/04/26 09:50:12;;;;;;;6.88;1.70;;;15.70;54.20;;;;;;4881933;29;20093;-75
2022/04/26 09:52:39;;;;;;;3.00;1.80;;;15.70;54.40;;;;;;4866374;29;20056;-75
2022/04/26 09:55:06;;;;;;;4.72;1.85;;;15.80;54.30;;;;;;4902335;29;20358;-74
2022/04/26 09:57:36;;;;;;;2.90;1.48;;;15.70;54.20;;;;;;4902520;29;20454;-75
2022/04/26 10:00:11;;;;;;;2.45;1.33;;;15.70;54.20;;;;;;4901984;29;20056;-75
2022/04/26 10:02:41;;;;;;;2.10;1.60;;;15.70;54.10;;;;;;4915000;29;20064;-74
2022/04/26 10:05:08;;;;;;;3.58;1.88;;;15.70;54.20;;;;;;4920233;29;20036;-75
2022/04/26 10:07:43;;;;;;;4.72;1.70;;;15.70;53.90;;;;;;4920563;29;20438;-75
2022/04/26 10:10:09;;;;;;;4.07;1.70;;;15.70;53.70;;;;;;4920768;29;20135;-77
2022/04/26 10:12:36;;;;;;;3.03;1.40;;;15.70;53.40;;;;;;4921659;29;20339;-75
2022/04/26 10:15:04;;;;;;;4.32;1.90;;;15.80;53.40;;;;;;4921097;29;20457;-76
2022/04/26 10:17:32;;;;;;;4.18;1.63;;;15.80;53.50;;;;;;4917718;29;20060;-75
2022/04/26 10:20:02;;;;;;;4.63;1.33;;;15.80;53.50;;;;;;4919241;29;20066;-77
2022/04/26 10:22:56;;;;;;;5.72;1.70;;;15.80;53.40;;;;;;4920322;29;20062;-75
2022/04/26 10:25:23;;;;;;;3.70;1.80;;;15.80;53.20;;;;;;4920483;29;20552;-73
2022/04/26 10:28:34;;;;;;;7.53;1.58;;;15.80;53.60;;;;;;4923023;29;20131;-73
2022/04/26 10:31:10;;;;;;;3.28;1.85;;;15.80;53.50;;;;;;4904784;29;20378;-74
2022/04/26 10:33:41;;;;;;;7.80;1.90;;;15.80;53.40;;;;;;4901784;29;20060;-73
2022/04/26 10:36:29;;;;;;;4.10;1.95;;;15.80;53.00;;;;;;4901699;29;20059;-75
2022/04/26 10:39:09;;;;;;;5.53;2.15;;;15.80;53.10;;;;;;4901958;29;20052;-74
2022/04/26 10:41:43;;;;;;;3.63;2.03;;;15.70;52.60;;;;;;4901052;29;20052;-79
2022/04/26 10:44:26;;;;;;;;;;;15.70;52.70;;;;;;4901701;29;20048;-77
2022/04/26 10:47:01;;;;;;;4.75;1.80;;;15.70;53.50;;;;;;4916211;29;19927;-79
2022/04/26 10:49:32;;;;;;;3.72;1.75;;;15.70;53.90;;;;;;4916207;29;20048;-78
2022/04/26 10:52:22;;;;;;;7.63;3.53;;;15.70;54.50;;;;;;4901621;29;20059;-78
2022/04/26 10:55:09;;;;;;;9.82;4.40;;;15.70;55.40;;;;;;4931990;29;20053;-75
2022/04/26 10:57:41;;;;;;;9.75;3.45;;;15.80;55.30;;;;;;4900725;29;20067;-77
2022/04/26 11:00:23;;;;;;;11.95;4.03;;;15.80;56.10;;;;;;4901003;29;20438;-76
2022/04/26 11:02:50;;;;;;;12.52;4.43;;;15.80;55.70;;;;;;4914895;29;20131;-76
2022/04/26 11:05:16;;;;;;;14.93;4.95;;;15.90;56.00;;;;;;4934583;29;20052;-79
2022/04/26 11:07:51;;;;;;;9.85;4.20;;;15.90;56.20;;;;;;4919221;29;20087;-75
2022/04/26 11:13:35;;;;;;;10.52;4.07;;;15.90;56.30;;;;;;4900943;29;20053;-82
2022/04/26 11:16:13;;;;;;;8.63;3.88;;;15.80;56.20;;;;;;4900071;29;20129;-80
2022/04/26 11:18:45;;;;;;;8.98;3.47;;;15.90;56.50;;;;;;4915220;29;20580;-80
2022/04/26 11:21:12;;;;;;;9.43;4.38;;;15.90;56.40;;;;;;4899367;29;20068;-76
2022/04/26 11:29:22;;;;;;;12.32;4.53;;;15.90;57.20;;;;;;4900634;29;19920;-75
2022/04/26 11:31:48;;;;;;;10.98;3.55;;;16.00;57.00;;;;;;4899621;29;20115;-75
2022/04/26 11:34:14;;;;;;;12.15;3.97;;;16.00;56.50;;;;;;4893954;29;20049;-76
2022/04/26 11:36:40;;;;;;;7.07;3.10;;;16.10;56.10;;;;;;4908787;29;20464;-75
2022/04/26 11:39:05;;;;;;;11.40;3.53;;;16.10;56.60;;;;;;4899965;29;20135;-78
2022/04/26 11:41:31;;;;;;;10.45;3.85;;;16.10;57.00;;;;;;4911142;29;20044;-76
2022/04/26 11:44:04;;;;;;;12.52;2.90;;;16.20;57.20;;;;;;4902062;29;20055;-77
2022/04/26 11:46:30;;;;;;;11.52;4.10;;;16.30;57.20;;;;;;4899922;29;20100;-78
2022/04/26 11:48:59;;;;;;;7.95;2.75;;;16.50;57.20;;;;;;4899499;29;20063;-79
2022/04/26 11:51:25;;;;;;;6.88;2.45;;;16.60;56.80;;;;;;4900549;29;20048;-80
2022/04/26 11:53:51;;;;;;;9.48;2.85;;;16.80;56.60;;;;;;4899114;29;20116;-79
2022/04/26 11:56:18;;;;;;;5.65;2.08;;;16.90;56.60;;;;;;4900261;29;20048;-78
2022/04/26 11:58:44;;;;;;;10.07;2.95;;;16.90;56.70;;;;;;4885437;29;20053;-78
2022/04/26 12:01:15;;;;;;;6.85;2.10;;;16.90;56.90;;;;;;4883527;29;20124;-78
2022/04/26 12:03:51;;;;;;;7.10;2.45;;;17.00;57.20;;;;;;4900368;29;20052;-79
2022/04/26 12:06:24;;;;;;;7.05;2.30;;;16.80;55.70;;;;;;4898180;29;20052;-79
2022/04/26 12:08:54;;;;;;;7.28;1.98;;;16.90;57.00;;;;;;4895979;29;20053;-79
2022/04/26 12:11:35;;;;;;;6.05;1.70;;;16.90;57.30;;;;;;4881348;29;20490;-79
2022/04/26 12:14:21;;;;;;;10.32;2.40;;;16.90;57.40;;;;;;4880609;29;20450;-79
2022/04/26 12:16:49;;;;;;;7.35;2.15;;;17.00;57.60;;;;;;4880934;29;20057;-82
2022/04/26 12:19:15;;;;;;;6.53;2.42;;;17.00;57.40;;;;;;4880275;29;20530;-78
2022/04/26 12:21:54;;;;;;;8.07;2.13;;;17.00;57.10;;;;;;4881271;29;20052;-79
2022/04/26 12:24:29;;;;;;;4.85;1.75;;;17.00;56.90;;;;;;4881221;29;20057;-79
2022/04/26 12:27:14;;;;;;;7.55;2.03;;;16.90;55.30;;;;;;4881461;29;20061;-76
2022/04/26 12:29:54;;;;;;;5.68;1.75;;;16.80;56.40;;;;;;4894841;29;20053;-75
2022/04/26 12:32:26;;;;;;;9.32;2.13;;;16.90;57.40;;;;;;4880047;29;20045;-77
2022/04/26 12:34:57;;;;;;;6.00;1.83;;;16.90;57.40;;;;;;4881223;29;20045;-77
2022/04/26 12:37:29;;;;;;;7.25;2.20;;;16.90;54.00;;;;;;4882196;29;20048;-78
2022/04/26 12:39:58;;;;;;;5.35;2.13;;;16.90;57.20;;;;;;4881072;29;20056;-77
2022/04/26 12:42:27;;;;;;;8.15;2.47;;;16.90;57.40;;;;;;4881344;29;20052;-77
2022/04/26 12:44:55;;;;;;;16.77;2.83;;;16.80;53.20;;;;;;4911829;29;20047;-75
2022/04/26 12:50:36;;;;;;;4.88;1.88;;;16.80;56.80;;;;;;4888732;29;20071;-71
2022/04/26 12:53:04;;;;;;;9.40;2.20;;;16.90;57.20;;;;;;4911669;29;20048;-75
2022/04/26 12:55:37;;;;;;;9.00;1.88;;;17.10;56.70;;;;;;4918425;29;20054;-74
2022/04/26 12:58:07;;;;;;;5.18;1.58;;;17.30;56.60;;;;;;4888156;29;20048;-77
2022/04/26 13:00:33;;;;;;;7.47;2.00;;;17.40;57.10;;;;;;4899429;29;20063;-78
2022/04/26 13:03:02;;;;;;;6.28;1.38;;;17.60;56.50;;;;;;4899410;29;20052;-75
2022/04/26 13:05:55;;;;;;;4.50;1.42;;;17.70;56.20;;;;;;4898870;29;20509;-76
2022/04/26 13:08:21;;;;;;;4.82;1.40;;;17.80;55.70;;;;;;4896942;29;20048;-75
2022/04/26 13:10:48;;;;;;;2.70;1.40;;;17.90;55.90;;;;;;4918521;29;20055;-79
2022/04/26 13:13:15;;;;;;;4.13;1.55;;;18.00;56.60;;;;;;4918373;29;20055;-76
2022/04/26 13:15:41;;;;;;;3.30;1.60;;;18.00;55.90;;;;;;4918605;29;20102;-77
2022/04/26 13:18:08;;;;;;;6.25;1.48;;;17.70;49.20;;;;;;4917143;29;20115;-77
2022/04/26 13:20:34;;;;;;;7.68;2.10;;;17.30;50.20;;;;;;4933049;29;20103;-77
2022/04/26 13:23:01;;;;;;;3.05;1.40;;;17.00;53.30;;;;;;4918422;29;20040;-80
2022/04/26 13:25:27;;;;;;;3.45;1.50;;;17.10;56.80;;;;;;4917306;29;20060;-76
2022/04/26 13:27:53;;;;;;;4.97;1.33;;;17.30;57.30;;;;;;4918200;29;20051;-79
2022/04/26 13:30:19;;;;;;;3.83;1.33;;;17.40;57.40;;;;;;4918058;29;20051;-77
2022/04/26 13:32:45;;;;;;;3.55;1.20;;;17.50;57.20;;;;;;4918254;29;20055;-77
2022/04/26 13:35:12;;;;;;;3.97;1.50;;;17.50;57.30;;;;;;4918913;29;20433;-76
2022/04/26 13:37:38;;;;;;;4.03;1.23;;;17.50;57.20;;;;;;4904179;29;20056;-77
2022/04/26 13:40:06;;;;;;;5.28;1.67;;;17.50;57.30;;;;;;4900243;29;20469;-78
2022/04/26 13:42:31;;;;;;;4.53;1.20;;;17.40;55.60;;;;;;4902834;29;20096;-77
2022/04/26 13:44:58;;;;;;;3.67;1.40;;;17.40;57.20;;;;;;4902375;29;20060;-78
2022/04/26 13:47:25;;;;;;;7.25;2.00;;;17.50;57.40;;;;;;4902981;29;20055;-77
2022/04/26 13:49:54;;;;;;;4.95;1.63;;;17.40;57.00;;;;;;4902180;29;20088;-77
2022/04/26 13:52:22;;;;;;;4.45;1.40;;;17.20;54.80;;;;;;4902306;29;20133;-77
2022/04/26 13:54:52;;;;;;;6.45;1.52;;;17.10;54.90;;;;;;4902117;29;20068;-76
2022/04/26 13:57:18;;;;;;;5.50;1.65;;;17.00;55.20;;;;;;4901669;29;20120;-77
2022/04/26 13:59:45;;;;;;;5.40;1.98;;;16.90;55.70;;;;;;4916940;29;20052;-75
2022/04/26 14:02:11;;;;;;;10.13;2.67;;;16.90;56.10;;;;;;4901495;29;20049;-76
2022/04/26 14:04:37;;;;;;;11.65;2.50;;;16.90;55.70;;;;;;4915485;29;20044;-76
2022/04/26 14:07:04;;;;;;;24.70;3.10;;;16.80;55.90;;;;;;4902689;29;20196;-75
2022/04/26 14:09:30;;;;;;;10.23;1.85;;;16.90;56.70;;;;;;4902438;29;20339;-76
2022/04/26 14:11:56;;;;;;;7.78;1.95;;;17.00;57.70;;;;;;4902948;29;20517;-75
2022/04/26 14:22:41;;;;;;;10.60;3.00;;;17.10;55.50;;;;;;4902366;29;20393;-77
2022/04/26 14:25:09;;;;;;;34.63;4.60;;;17.10;56.00;;;;;;4900879;29;20537;-75
2022/04/26 14:27:35;;;;;;;16.50;3.08;;;17.00;55.70;;;;;;4901074;29;20060;-75
2022/04/26 14:30:03;;;;;;;21.33;3.30;;;17.10;56.00;;;;;;4901546;29;20369;-74
2022/04/26 14:32:29;;;;;;;11.23;2.38;;;17.10;57.10;;;;;;4901808;29;20052;-75
2022/04/26 14:34:55;;;;;;;13.13;3.13;;;17.20;57.40;;;;;;4902016;29;20521;-74
2022/04/26 14:37:22;;;;;;;12.38;3.40;;;17.30;57.70;;;;;;4900644;29;20056;-75
2022/04/26 14:39:49;;;;;;;17.08;3.45;;;17.20;55.20;;;;;;4900890;29;20454;-75
2022/04/26 14:42:15;;;;;;;11.50;2.72;;;17.10;55.30;;;;;;4901612;29;20091;-75
2022/04/26 14:44:41;;;;;;;14.07;3.45;;;17.10;55.10;;;;;;4901300;29;20461;-74
2022/04/26 14:47:07;;;;;;;15.45;3.45;;;17.00;55.40;;;;;;4901182;29;20052;-75
2022/04/26 14:49:33;;;;;;;8.10;2.25;;;17.00;56.50;;;;;;4901958;29;20040;-72
2022/04/26 14:52:03;;;;;;;10.90;2.60;;;17.10;57.70;;;;;;4899365;29;20127;-74
2022/04/26 14:54:29;;;;;;;11.10;2.28;;;17.10;58.30;;;;;;4903489;29;20381;-78
2022/04/26 14:56:55;;;;;;;7.38;2.00;;;17.20;57.50;;;;;;4907241;29;20056;-77
2022/04/26 14:59:22;;;;;;;7.22;2.33;;;17.20;58.20;;;;;;4920060;29;20047;-74
2022/04/26 15:01:49;;;;;;;7.00;2.17;;;17.20;58.80;;;;;;4919781;29;20060;-77
2022/04/26 15:04:25;;;;;;;9.40;2.60;;;17.20;59.30;;;;;;4903405;29;20056;-79
2022/04/26 15:06:51;;;;;;;10.35;2.20;;;17.30;59.00;;;;;;4907692;29;20052;-76
2022/04/26 15:17:31;;;;;;;5.25;1.88;;;17.30;58.60;;;;;;4900827;29;20128;-76
2022/04/26 15:19:57;;;;;;;6.88;2.25;;;17.30;59.10;;;;;;4900795;29;20368;-76
2022/04/26 15:22:24;;;;;;;8.88;2.15;;;17.30;59.10;;;;;;4900839;29;20041;-75
2022/04/26 15:24:51;;;;;;;5.53;1.95;;;17.30;59.10;;;;;;4900848;29;20079;-75
2022/04/26 15:27:18;;;;;;;7.70;2.38;;;17.30;56.40;;;;;;4900799;29;20465;-76
2022/04/26 15:29:45;;;;;;;7.30;2.08;;;17.30;58.20;;;;;;4904358;29;20127;-75
2022/04/26 15:32:11;;;;;;;9.57;2.10;;;17.30;58.60;;;;;;4901122;29;20048;-77
2022/04/26 15:34:37;;;;;;;9.35;2.30;;;17.30;57.50;;;;;;4900508;29;20045;-76
2022/04/26 15:37:04;;;;;;;10.63;2.10;;;17.30;57.00;;;;;;4900858;29;20351;-76
2022/04/26 15:39:30;;;;;;;8.85;2.08;;;17.30;58.70;;;;;;4901132;29;20104;-76
2022/04/26 15:41:56;;;;;;;11.70;1.75;;;17.40;59.40;;;;;;4915505;29;20143;-75
2022/04/26 15:44:23;;;;;;;8.20;1.90;;;17.40;59.40;;;;;;4900125;29;20044;-76
2022/04/26 15:46:52;;;;;;;8.25;1.52;;;17.40;59.40;;;;;;4900519;29;20135;-77
2022/04/26 15:49:21;;;;;;;7.05;1.83;;;17.40;59.40;;;;;;4900569;29;20044;-75
2022/04/26 15:51:49;;;;;;;6.35;2.30;;;17.40;59.60;;;;;;4902233;29;20472;-76
2022/04/26 15:54:18;;;;;;;6.32;1.58;;;17.40;59.70;;;;;;4900328;29;20055;-75
2022/04/26 15:56:45;;;;;;;6.28;2.35;;;17.40;58.80;;;;;;4899837;29;20084;-79
2022/04/26 15:59:11;;;;;;;6.88;2.63;;;17.40;59.90;;;;;;4900424;29;20048;-76
2022/04/26 16:01:41;;;;;;;8.05;2.90;;;17.40;57.70;;;;;;4902320;29;20051;-78
2022/04/26 16:04:10;;;;;;;12.00;3.20;;;17.30;56.50;;;;;;4909077;29;20052;-79
2022/04/26 16:06:41;;;;;;;8.02;2.55;;;17.40;59.10;;;;;;4900635;29;20041;-77
2022/04/26 16:22:50;;;;;;;13.70;3.00;;;17.40;59.50;;;;;;4899369;29;20064;-78
2022/04/26 16:25:16;;;;;;;14.77;2.42;;;17.40;55.90;;;;;;4915006;29;20044;-75
2022/04/26 16:27:42;;;;;;;12.30;2.90;;;17.40;57.10;;;;;;4899956;29;20048;-75
2022/04/26 16:30:11;;;;;;;7.82;2.78;;;17.40;58.70;;;;;;4911672;29;20103;-72
2022/04/26 16:32:38;;;;;;;10.05;2.30;;;17.50;57.80;;;;;;4918849;29;20377;-75
2022/04/26 16:35:06;;;;;;;20.30;3.45;;;17.50;57.70;;;;;;4918876;29;20052;-77
2022/04/26 16:37:32;;;;;;;13.35;2.88;;;17.50;56.50;;;;;;4919160;29;20421;-75
2022/04/26 16:39:57;;;;;;;8.10;2.30;;;17.40;55.90;;;;;;4933580;29;20103;-77
2022/04/26 16:42:23;;;;;;;10.88;2.60;;;17.50;56.30;;;;;;4917810;29;20071;-78
2022/04/26 16:44:49;;;;;;;9.15;1.98;;;17.50;56.20;;;;;;4933020;29;20044;-78
2022/04/26 16:47:14;;;;;;;7.40;2.00;;;17.50;55.80;;;;;;4917703;29;20052;-73
2022/04/26 16:49:40;;;;;;;7.20;2.13;;;17.40;55.80;;;;;;4901645;29;20123;-77
2022/04/26 16:52:06;;;;;;;8.38;1.80;;;17.40;55.30;;;;;;4918339;29;20465;-76
2022/04/26 16:54:32;;;;;;;8.93;2.33;;;17.30;55.40;;;;;;4918475;29;20187;-76
2022/04/26 16:56:57;;;;;;;9.90;2.15;;;17.30;56.10;;;;;;4919023;29;20131;-77
2022/04/26 16:59:24;;;;;;;8.50;2.50;;;17.30;56.40;;;;;;4913050;29;20467;-77
2022/04/26 17:01:51;;;;;;;11.02;2.83;;;17.30;56.60;;;;;;4900003;29;20052;-77
2022/04/26 17:04:17;;;;;;;5.53;1.75;;;17.30;56.70;;;;;;4899852;29;20365;-77
2022/04/26 17:06:43;;;;;;;6.15;1.90;;;17.30;56.80;;;;;;4899748;29;20044;-77
2022/04/26 17:09:10;;;;;;;6.93;2.28;;;17.20;56.90;;;;;;4899457;29;20485;-77
2022/04/26 17:11:42;;;;;;;6.47;2.42;;;17.20;57.60;;;;;;4899043;29;20045;-76
2022/04/26 17:14:15;;;;;;;7.35;1.80;;;17.20;57.20;;;;;;4899724;29;20191;-79
2022/04/26 17:16:45;;;;;;;7.87;2.13;;;17.20;57.10;;;;;;4903116;29;20484;-78
2022/04/26 17:19:12;;;;;;;6.45;2.53;;;17.20;57.20;;;;;;4903034;29;20721;-77
2022/04/26 17:21:38;;;;;;;5.68;1.67;;;17.10;57.20;;;;;;4903464;29;20045;-76
2022/04/26 17:24:04;;;;;;;6.25;1.83;;;17.10;57.30;;;;;;4903359;29;20385;-77
2022/04/26 17:26:30;;;;;;;6.50;2.05;;;17.10;57.30;;;;;;4902221;29;20210;-77
2022/04/26 17:28:57;;;;;;;9.77;2.17;;;17.10;57.40;;;;;;4903176;29;20049;-75
2022/04/26 17:31:26;;;;;;;9.52;2.60;;;17.10;57.30;;;;;;4903069;29;20053;-79
2022/04/26 17:33:55;;;;;;;5.70;2.28;;;17.20;53.60;;;;;;4902776;29;20041;-77
2022/04/26 17:36:21;;;;;;;5.13;1.70;;;17.10;51.10;;;;;;4902696;29;20040;-77
2022/04/26 17:38:46;;;;;;;3.30;1.50;;;16.90;49.90;;;;;;4903092;29;20123;-77